sensor_id;sensor_type;location;lat;lon;timestamp;P1;durP1;ratioP1;P2;durP2;ratioP2
55915;SDS011;41826;53.246;-6.670;2022-10-16T00:01:07;4.05;;;0.95;;
55915;SDS011;41826;53.246;-6.670;2022-10-16T00:03:34;3.63;;;0.70;;
55915;SDS011;41826;53.246;-6.670;2022-10-16T00:06:00;4.05;;;0.80;;
55915;SDS011;41826;53.246;-6.670;2022-10-16T00:08:26;5.70;;;1.35;;
55915;SDS011;41826;53.246;-6.670;2022-10-16T00:10:52;3.58;;;0.57;;
55915;SDS011;41826;53.246;-6.670;2022-10-16T00:13:17;1.88;;;0.98;;
55915;SDS011;41826;53.246;-6.670;2022-10-16T00:15:44;0.98;;;0.60;;
55915;SDS011;41826;53.246;-6.670;2022-10-16T00:18:11;1.85;;;0.77;;
55915;SDS011;41826;53.246;-6.670;2022-10-16T00:20:37;1.08;;;0.63;;
55915;SDS011;41826;53.246;-6.670;2022-10-16T00:23:03;4.60;;;0.63;;
55915;SDS011;41826;53.246;-6.670;2022-10-16T00:25:30;4.72;;;1.17;;
55915;SDS011;41826;53.246;-6.670;2022-10-16T00:27:57;1.35;;;0.60;;
55915;SDS011;41826;53.246;-6.670;2022-10-16T00:30:23;2.35;;;0.63;;
55915;SDS011;41826;53.246;-6.670;2022-10-16T00:32:49;1.80;;;0.50;;
55915;SDS011;41826;53.246;-6.670;2022-10-16T00:35:14;2.17;;;0.77;;
55915;SDS011;41826;53.246;-6.670;2022-10-16T00:37:40;1.13;;;0.50;;
55915;SDS011;41826;53.246;-6.670;2022-10-16T00:40:05;0.93;;;0.65;;
55915;SDS011;41826;53.246;-6.670;2022-10-16T00:42:31;5.55;;;0.77;;
55915;SDS011;41826;53.246;-6.670;2022-10-16T00:44:57;4.95;;;0.70;;
55915;SDS011;41826;53.246;-6.670;2022-10-16T00:50:00;2.30;;;0.50;;
55915;SDS011;41826;53.246;-6.670;2022-10-16T00:52:39;0.50;;;0.50;;
55915;SDS011;41826;53.246;-6.670;2022-10-16T00:55:09;1.88;;;0.57;;
55915;SDS011;41826;53.246;-6.670;2022-10-16T00:57:36;4.10;;;0.70;;
55915;SDS011;41826;53.246;-6.670;2022-10-16T01:00:03;4.75;;;0.55;;
55915;SDS011;41826;53.246;-6.670;2022-10-16T01:02:30;4.28;;;0.60;;
55915;SDS011;41826;53.246;-6.670;2022-10-16T01:04:55;5.15;;;0.57;;
55915;SDS011;41826;53.246;-6.670;2022-10-16T01:12:57;1.75;;;0.68;;
55915;SDS011;41826;53.246;-6.670;2022-10-16T01:15:42;0.93;;;0.70;;
55915;SDS011;41826;53.246;-6.670;2022-10-16T01:20:47;1.58;;;0.60;;
55915;SDS011;41826;53.246;-6.670;2022-10-16T01:28:51;1.65;;;1.08;;
55915;SDS011;41826;53.246;-6.670;2022-10-16T01:31:22;4.85;;;1.00;;
55915;SDS011;41826;53.246;-6.670;2022-10-16T01:34:03;3.70;;;0.95;;
55915;SDS011;41826;53.246;-6.670;2022-10-16T01:36:41;1.35;;;0.65;;
55915;SDS011;41826;53.246;-6.670;2022-10-16T01:39:13;2.92;;;0.70;;
55915;SDS011;41826;53.246;-6.670;2022-10-16T01:41:45;0.40;;;0.35;;
55915;SDS011;41826;53.246;-6.670;2022-10-16T01:44:18;0.52;;;0.30;;
55915;SDS011;41826;53.246;-6.670;2022-10-16T01:46:48;3.78;;;0.50;;
55915;SDS011;41826;53.246;-6.670;2022-10-16T01:49:16;3.35;;;0.73;;
55915;SDS011;41826;53.246;-6.670;2022-10-16T01:51:44;6.85;;;0.88;;
55915;SDS011;41826;53.246;-6.670;2022-10-16T01:54:13;3.05;;;0.52;;
55915;SDS011;41826;53.246;-6.670;2022-10-16T01:56:41;9.10;;;0.70;;
55915;SDS011;41826;53.246;-6.670;2022-10-16T01:59:11;1.75;;;0.40;;
55915;SDS011;41826;53.246;-6.670;2022-10-16T02:01:40;2.42;;;0.63;;
55915;SDS011;41826;53.246;-6.670;2022-10-16T02:04:14;5.57;;;0.60;;
55915;SDS011;41826;53.246;-6.670;2022-10-16T02:06:53;4.55;;;0.60;;
55915;SDS011;41826;53.246;-6.670;2022-10-16T02:09:18;3.80;;;0.70;;
55915;SDS011;41826;53.246;-6.670;2022-10-16T02:11:44;1.08;;;0.50;;
55915;SDS011;41826;53.246;-6.670;2022-10-16T02:14:10;1.90;;;0.50;;
55915;SDS011;41826;53.246;-6.670;2022-10-16T02:16:40;2.30;;;0.40;;
55915;SDS011;41826;53.246;-6.670;2022-10-16T02:19:07;2.47;;;0.30;;
55915;SDS011;41826;53.246;-6.670;2022-10-16T02:24:21;3.28;;;0.70;;
55915;SDS011;41826;53.246;-6.670;2022-10-16T02:27:03;0.40;;;0.40;;
55915;SDS011;41826;53.246;-6.670;2022-10-16T02:29:30;1.00;;;0.52;;
55915;SDS011;41826;53.246;-6.670;2022-10-16T02:32:00;1.55;;;0.55;;
55915;SDS011;41826;53.246;-6.670;2022-10-16T02:34:28;2.60;;;0.60;;
55915;SDS011;41826;53.246;-6.670;2022-10-16T02:36:56;1.58;;;0.60;;
55915;SDS011;41826;53.246;-6.670;2022-10-16T02:39:26;1.42;;;0.55;;
55915;SDS011;41826;53.246;-6.670;2022-10-16T02:41:53;0.77;;;0.40;;
55915;SDS011;41826;53.246;-6.670;2022-10-16T02:44:19;0.40;;;0.40;;
55915;SDS011;41826;53.246;-6.670;2022-10-16T02:46:44;3.83;;;0.57;;
55915;SDS011;41826;53.246;-6.670;2022-10-16T02:49:10;1.02;;;0.40;;
55915;SDS011;41826;53.246;-6.670;2022-10-16T02:51:35;3.05;;;0.80;;
55915;SDS011;41826;53.246;-6.670;2022-10-16T02:54:01;1.98;;;0.47;;
55915;SDS011;41826;53.246;-6.670;2022-10-16T02:56:27;2.13;;;0.70;;
55915;SDS011;41826;53.246;-6.670;2022-10-16T02:58:53;1.27;;;0.47;;
55915;SDS011;41826;53.246;-6.670;2022-10-16T03:01:18;2.00;;;0.50;;
55915;SDS011;41826;53.246;-6.670;2022-10-16T03:03:43;0.50;;;0.40;;
55915;SDS011;41826;53.246;-6.670;2022-10-16T03:06:09;0.80;;;0.40;;
55915;SDS011;41826;53.246;-6.670;2022-10-16T03:08:34;2.00;;;0.50;;
55915;SDS011;41826;53.246;-6.670;2022-10-16T03:11:00;1.35;;;0.40;;
55915;SDS011;41826;53.246;-6.670;2022-10-16T03:13:25;2.42;;;0.57;;
55915;SDS011;41826;53.246;-6.670;2022-10-16T03:15:50;2.95;;;0.70;;
55915;SDS011;41826;53.246;-6.670;2022-10-16T03:18:16;3.13;;;0.60;;
55915;SDS011;41826;53.246;-6.670;2022-10-16T03:20:42;5.75;;;0.77;;
55915;SDS011;41826;53.246;-6.670;2022-10-16T03:23:08;2.38;;;0.40;;
55915;SDS011;41826;53.246;-6.670;2022-10-16T03:25:33;3.08;;;0.50;;
55915;SDS011;41826;53.246;-6.670;2022-10-16T03:27:59;2.03;;;0.70;;
55915;SDS011;41826;53.246;-6.670;2022-10-16T03:30:25;0.95;;;0.40;;
55915;SDS011;41826;53.246;-6.670;2022-10-16T03:32:50;0.30;;;0.30;;
55915;SDS011;41826;53.246;-6.670;2022-10-16T03:35:19;1.85;;;0.50;;
55915;SDS011;41826;53.246;-6.670;2022-10-16T03:37:45;0.77;;;0.55;;
55915;SDS011;41826;53.246;-6.670;2022-10-16T03:40:10;1.40;;;0.47;;
55915;SDS011;41826;53.246;-6.670;2022-10-16T03:42:36;4.97;;;0.45;;
55915;SDS011;41826;53.246;-6.670;2022-10-16T03:45:02;0.88;;;0.40;;
55915;SDS011;41826;53.246;-6.670;2022-10-16T03:47:27;0.55;;;0.45;;
55915;SDS011;41826;53.246;-6.670;2022-10-16T03:49:53;1.45;;;0.40;;
55915;SDS011;41826;53.246;-6.670;2022-10-16T03:52:18;1.35;;;0.50;;
55915;SDS011;41826;53.246;-6.670;2022-10-16T03:54:44;1.77;;;0.30;;
55915;SDS011;41826;53.246;-6.670;2022-10-16T03:57:09;1.35;;;0.50;;
55915;SDS011;41826;53.246;-6.670;2022-10-16T03:59:34;3.70;;;0.60;;
55915;SDS011;41826;53.246;-6.670;2022-10-16T04:02:00;1.58;;;0.50;;
55915;SDS011;41826;53.246;-6.670;2022-10-16T04:04:25;2.13;;;0.50;;
55915;SDS011;41826;53.246;-6.670;2022-10-16T04:06:51;2.53;;;0.50;;
55915;SDS011;41826;53.246;-6.670;2022-10-16T04:09:16;0.75;;;0.40;;
55915;SDS011;41826;53.246;-6.670;2022-10-16T04:11:42;1.75;;;0.50;;
55915;SDS011;41826;53.246;-6.670;2022-10-16T04:14:07;4.82;;;0.45;;
55915;SDS011;41826;53.246;-6.670;2022-10-16T04:16:32;1.38;;;0.40;;
55915;SDS011;41826;53.246;-6.670;2022-10-16T04:18:59;1.65;;;0.43;;
55915;SDS011;41826;53.246;-6.670;2022-10-16T04:21:24;4.97;;;0.82;;
55915;SDS011;41826;53.246;-6.670;2022-10-16T04:23:50;2.30;;;0.45;;
55915;SDS011;41826;53.246;-6.670;2022-10-16T04:26:15;3.03;;;0.90;;
55915;SDS011;41826;53.246;-6.670;2022-10-16T04:28:41;3.28;;;0.55;;
55915;SDS011;41826;53.246;-6.670;2022-10-16T04:31:06;1.15;;;0.40;;
55915;SDS011;41826;53.246;-6.670;2022-10-16T04:33:32;3.92;;;0.52;;
55915;SDS011;41826;53.246;-6.670;2022-10-16T04:35:59;0.75;;;0.40;;
55915;SDS011;41826;53.246;-6.670;2022-10-16T04:38:25;3.05;;;0.88;;
55915;SDS011;41826;53.246;-6.670;2022-10-16T04:40:51;1.67;;;0.30;;
55915;SDS011;41826;53.246;-6.670;2022-10-16T04:43:16;0.40;;;0.40;;
55915;SDS011;41826;53.246;-6.670;2022-10-16T04:45:42;0.32;;;0.32;;
55915;SDS011;41826;53.246;-6.670;2022-10-16T04:48:07;2.40;;;0.60;;
55915;SDS011;41826;53.246;-6.670;2022-10-16T04:50:32;2.38;;;0.68;;
55915;SDS011;41826;53.246;-6.670;2022-10-16T04:52:58;1.88;;;0.57;;
55915;SDS011;41826;53.246;-6.670;2022-10-16T04:55:23;4.40;;;0.45;;
55915;SDS011;41826;53.246;-6.670;2022-10-16T04:57:49;1.15;;;0.47;;
55915;SDS011;41826;53.246;-6.670;2022-10-16T05:00:14;2.33;;;0.30;;
55915;SDS011;41826;53.246;-6.670;2022-10-16T05:02:40;5.07;;;0.50;;
55915;SDS011;41826;53.246;-6.670;2022-10-16T05:05:05;1.65;;;0.50;;
55915;SDS011;41826;53.246;-6.670;2022-10-16T05:07:31;0.60;;;0.40;;
55915;SDS011;41826;53.246;-6.670;2022-10-16T05:09:57;2.35;;;0.77;;
55915;SDS011;41826;53.246;-6.670;2022-10-16T05:12:22;0.98;;;0.45;;
55915;SDS011;41826;53.246;-6.670;2022-10-16T05:14:48;3.63;;;0.60;;
55915;SDS011;41826;53.246;-6.670;2022-10-16T05:17:13;2.13;;;0.60;;
55915;SDS011;41826;53.246;-6.670;2022-10-16T05:19:39;0.93;;;0.40;;
55915;SDS011;41826;53.246;-6.670;2022-10-16T05:22:04;3.75;;;0.65;;
55915;SDS011;41826;53.246;-6.670;2022-10-16T05:24:30;1.52;;;0.50;;
55915;SDS011;41826;53.246;-6.670;2022-10-16T05:26:55;0.85;;;0.40;;
55915;SDS011;41826;53.246;-6.670;2022-10-16T05:29:21;1.52;;;0.32;;
55915;SDS011;41826;53.246;-6.670;2022-10-16T05:31:49;0.47;;;0.40;;
55915;SDS011;41826;53.246;-6.670;2022-10-16T05:34:15;2.72;;;0.93;;
55915;SDS011;41826;53.246;-6.670;2022-10-16T05:36:41;3.67;;;0.50;;
55915;SDS011;41826;53.246;-6.670;2022-10-16T05:39:06;1.73;;;0.60;;
55915;SDS011;41826;53.246;-6.670;2022-10-16T05:41:31;0.65;;;0.65;;
55915;SDS011;41826;53.246;-6.670;2022-10-16T05:43:57;0.55;;;0.40;;
55915;SDS011;41826;53.246;-6.670;2022-10-16T05:46:22;3.55;;;0.50;;
55915;SDS011;41826;53.246;-6.670;2022-10-16T05:48:48;3.85;;;0.70;;
55915;SDS011;41826;53.246;-6.670;2022-10-16T05:51:14;4.90;;;0.50;;
55915;SDS011;41826;53.246;-6.670;2022-10-16T05:53:40;2.53;;;0.70;;
55915;SDS011;41826;53.246;-6.670;2022-10-16T05:56:06;2.20;;;0.50;;
55915;SDS011;41826;53.246;-6.670;2022-10-16T05:58:34;5.13;;;0.43;;
55915;SDS011;41826;53.246;-6.670;2022-10-16T06:01:06;0.57;;;0.50;;
55915;SDS011;41826;53.246;-6.670;2022-10-16T06:03:36;2.17;;;0.55;;
55915;SDS011;41826;53.246;-6.670;2022-10-16T06:06:09;0.47;;;0.47;;
55915;SDS011;41826;53.246;-6.670;2022-10-16T06:08:35;2.03;;;0.40;;
55915;SDS011;41826;53.246;-6.670;2022-10-16T06:11:04;2.55;;;0.52;;
55915;SDS011;41826;53.246;-6.670;2022-10-16T06:13:31;2.88;;;0.50;;
55915;SDS011;41826;53.246;-6.670;2022-10-16T06:15:57;5.15;;;0.85;;
55915;SDS011;41826;53.246;-6.670;2022-10-16T06:18:24;1.10;;;0.63;;
55915;SDS011;41826;53.246;-6.670;2022-10-16T06:20:51;5.60;;;1.00;;
55915;SDS011;41826;53.246;-6.670;2022-10-16T06:23:16;0.52;;;0.30;;
55915;SDS011;41826;53.246;-6.670;2022-10-16T06:25:41;4.82;;;0.60;;
55915;SDS011;41826;53.246;-6.670;2022-10-16T06:28:07;3.35;;;1.05;;
55915;SDS011;41826;53.246;-6.670;2022-10-16T06:30:32;0.93;;;0.40;;
55915;SDS011;41826;53.246;-6.670;2022-10-16T06:32:57;2.05;;;0.60;;
55915;SDS011;41826;53.246;-6.670;2022-10-16T06:35:23;2.85;;;0.40;;
55915;SDS011;41826;53.246;-6.670;2022-10-16T06:37:49;0.75;;;0.40;;
55915;SDS011;41826;53.246;-6.670;2022-10-16T06:40:14;1.60;;;0.47;;
55915;SDS011;41826;53.246;-6.670;2022-10-16T06:42:40;0.88;;;0.32;;
55915;SDS011;41826;53.246;-6.670;2022-10-16T06:45:06;0.40;;;0.30;;
55915;SDS011;41826;53.246;-6.670;2022-10-16T06:47:32;2.65;;;0.40;;
55915;SDS011;41826;53.246;-6.670;2022-10-16T06:49:57;0.82;;;0.45;;
55915;SDS011;41826;53.246;-6.670;2022-10-16T06:52:22;2.45;;;0.50;;
55915;SDS011;41826;53.246;-6.670;2022-10-16T06:54:49;2.92;;;0.40;;
55915;SDS011;41826;53.246;-6.670;2022-10-16T06:57:14;1.00;;;0.30;;
55915;SDS011;41826;53.246;-6.670;2022-10-16T06:59:40;1.02;;;0.40;;
55915;SDS011;41826;53.246;-6.670;2022-10-16T07:02:05;2.15;;;0.50;;
55915;SDS011;41826;53.246;-6.670;2022-10-16T07:04:32;0.63;;;0.30;;
55915;SDS011;41826;53.246;-6.670;2022-10-16T07:06:59;0.43;;;0.40;;
55915;SDS011;41826;53.246;-6.670;2022-10-16T07:09:25;1.50;;;0.30;;
55915;SDS011;41826;53.246;-6.670;2022-10-16T07:11:51;0.30;;;0.20;;
55915;SDS011;41826;53.246;-6.670;2022-10-16T07:14:17;0.25;;;0.25;;
55915;SDS011;41826;53.246;-6.670;2022-10-16T07:16:44;1.02;;;0.30;;
55915;SDS011;41826;53.246;-6.670;2022-10-16T07:19:10;0.45;;;0.45;;
55915;SDS011;41826;53.246;-6.670;2022-10-16T07:21:37;0.85;;;0.32;;
55915;SDS011;41826;53.246;-6.670;2022-10-16T07:24:03;0.25;;;0.22;;
55915;SDS011;41826;53.246;-6.670;2022-10-16T07:26:32;2.33;;;0.30;;
55915;SDS011;41826;53.246;-6.670;2022-10-16T07:28:59;4.03;;;0.85;;
55915;SDS011;41826;53.246;-6.670;2022-10-16T07:31:25;2.90;;;0.65;;
55915;SDS011;41826;53.246;-6.670;2022-10-16T07:33:51;1.13;;;0.40;;
55915;SDS011;41826;53.246;-6.670;2022-10-16T07:36:18;4.05;;;0.30;;
55915;SDS011;41826;53.246;-6.670;2022-10-16T07:38:44;4.13;;;0.47;;
55915;SDS011;41826;53.246;-6.670;2022-10-16T07:41:12;1.88;;;0.38;;
55915;SDS011;41826;53.246;-6.670;2022-10-16T07:43:40;0.30;;;0.30;;
55915;SDS011;41826;53.246;-6.670;2022-10-16T07:46:10;0.20;;;0.20;;
55915;SDS011;41826;53.246;-6.670;2022-10-16T07:48:35;1.50;;;0.35;;
55915;SDS011;41826;53.246;-6.670;2022-10-16T07:51:01;4.80;;;0.55;;
55915;SDS011;41826;53.246;-6.670;2022-10-16T07:53:28;2.95;;;0.43;;
55915;SDS011;41826;53.246;-6.670;2022-10-16T07:56:00;1.27;;;0.45;;
55915;SDS011;41826;53.246;-6.670;2022-10-16T07:58:28;1.70;;;0.40;;
55915;SDS011;41826;53.246;-6.670;2022-10-16T08:00:54;2.50;;;0.45;;
55915;SDS011;41826;53.246;-6.670;2022-10-16T08:03:20;2.25;;;0.50;;
55915;SDS011;41826;53.246;-6.670;2022-10-16T08:05:45;1.80;;;0.40;;
55915;SDS011;41826;53.246;-6.670;2022-10-16T08:08:14;2.20;;;0.40;;
55915;SDS011;41826;53.246;-6.670;2022-10-16T08:10:40;2.35;;;0.70;;
55915;SDS011;41826;53.246;-6.670;2022-10-16T08:13:06;1.83;;;0.68;;
55915;SDS011;41826;53.246;-6.670;2022-10-16T08:15:32;8.32;;;0.90;;
55915;SDS011;41826;53.246;-6.670;2022-10-16T08:18:01;3.60;;;1.15;;
55915;SDS011;41826;53.246;-6.670;2022-10-16T08:20:29;2.30;;;0.85;;
55915;SDS011;41826;53.246;-6.670;2022-10-16T08:22:56;2.50;;;1.33;;
55915;SDS011;41826;53.246;-6.670;2022-10-16T08:25:22;2.92;;;1.15;;
55915;SDS011;41826;53.246;-6.670;2022-10-16T08:27:48;4.97;;;2.10;;
55915;SDS011;41826;53.246;-6.670;2022-10-16T08:30:14;1.95;;;0.90;;
55915;SDS011;41826;53.246;-6.670;2022-10-16T08:32:41;3.20;;;1.00;;
55915;SDS011;41826;53.246;-6.670;2022-10-16T08:35:07;3.83;;;1.90;;
55915;SDS011;41826;53.246;-6.670;2022-10-16T08:37:37;2.45;;;1.50;;
55915;SDS011;41826;53.246;-6.670;2022-10-16T08:40:32;2.85;;;1.77;;
55915;SDS011;41826;53.246;-6.670;2022-10-16T08:53:30;6.45;;;1.88;;
55915;SDS011;41826;53.246;-6.670;2022-10-16T08:56:37;6.35;;;1.98;;
55915;SDS011;41826;53.246;-6.670;2022-10-16T08:59:09;3.67;;;2.20;;
55915;SDS011;41826;53.246;-6.670;2022-10-16T09:02:03;7.30;;;3.00;;
55915;SDS011;41826;53.246;-6.670;2022-10-16T09:08:31;4.25;;;2.60;;
55915;SDS011;41826;53.246;-6.670;2022-10-16T09:14:59;4.32;;;1.95;;
55915;SDS011;41826;53.246;-6.670;2022-10-16T09:24:07;4.38;;;1.27;;
55915;SDS011;41826;53.246;-6.670;2022-10-16T09:26:56;5.57;;;2.33;;
55915;SDS011;41826;53.246;-6.670;2022-10-16T09:32:10;4.82;;;2.22;;
55915;SDS011;41826;53.246;-6.670;2022-10-16T09:34:50;4.32;;;1.65;;
55915;SDS011;41826;53.246;-6.670;2022-10-16T09:37:21;3.13;;;1.80;;
55915;SDS011;41826;53.246;-6.670;2022-10-16T09:39:50;3.95;;;1.70;;
55915;SDS011;41826;53.246;-6.670;2022-10-16T09:42:18;3.97;;;1.67;;
55915;SDS011;41826;53.246;-6.670;2022-10-16T09:44:49;2.25;;;1.20;;
55915;SDS011;41826;53.246;-6.670;2022-10-16T09:47:19;4.57;;;2.10;;
55915;SDS011;41826;53.246;-6.670;2022-10-16T09:49:53;3.95;;;1.70;;
55915;SDS011;41826;53.246;-6.670;2022-10-16T09:52:27;2.70;;;1.20;;
55915;SDS011;41826;53.246;-6.670;2022-10-16T09:54:54;6.10;;;2.22;;
55915;SDS011;41826;53.246;-6.670;2022-10-16T09:57:24;3.65;;;1.77;;
55915;SDS011;41826;53.246;-6.670;2022-10-16T09:59:57;3.92;;;2.00;;
55915;SDS011;41826;53.246;-6.670;2022-10-16T10:02:28;5.47;;;1.60;;
55915;SDS011;41826;53.246;-6.670;2022-10-16T10:04:56;8.43;;;2.20;;
55915;SDS011;41826;53.246;-6.670;2022-10-16T10:07:32;3.78;;;2.30;;
55915;SDS011;41826;53.246;-6.670;2022-10-16T10:10:03;4.57;;;1.80;;
55915;SDS011;41826;53.246;-6.670;2022-10-16T10:12:30;3.42;;;1.58;;
55915;SDS011;41826;53.246;-6.670;2022-10-16T10:15:02;3.85;;;1.65;;
55915;SDS011;41826;53.246;-6.670;2022-10-16T10:17:48;4.30;;;1.67;;
55915;SDS011;41826;53.246;-6.670;2022-10-16T10:20:29;2.03;;;1.27;;
55915;SDS011;41826;53.246;-6.670;2022-10-16T10:33:54;3.70;;;1.98;;
55915;SDS011;41826;53.246;-6.670;2022-10-16T10:36:32;6.15;;;1.10;;
55915;SDS011;41826;53.246;-6.670;2022-10-16T10:46:45;4.45;;;0.90;;
55915;SDS011;41826;53.246;-6.670;2022-10-16T10:58:15;1.52;;;0.88;;
55915;SDS011;41826;53.246;-6.670;2022-10-16T11:03:27;4.07;;;1.85;;
55915;SDS011;41826;53.246;-6.670;2022-10-16T11:06:14;5.47;;;1.42;;
55915;SDS011;41826;53.246;-6.670;2022-10-16T11:08:45;5.05;;;1.00;;
55915;SDS011;41826;53.246;-6.670;2022-10-16T11:11:25;5.00;;;0.98;;
55915;SDS011;41826;53.246;-6.670;2022-10-16T11:14:20;1.63;;;0.90;;
55915;SDS011;41826;53.246;-6.670;2022-10-16T11:16:53;2.78;;;0.95;;
55915;SDS011;41826;53.246;-6.670;2022-10-16T11:19:42;2.78;;;0.80;;
55915;SDS011;41826;53.246;-6.670;2022-10-16T11:24:59;2.85;;;0.90;;
55915;SDS011;41826;53.246;-6.670;2022-10-16T11:27:40;3.00;;;1.00;;
55915;SDS011;41826;53.246;-6.670;2022-10-16T11:30:24;3.15;;;1.33;;
55915;SDS011;41826;53.246;-6.670;2022-10-16T11:35:48;4.05;;;1.20;;
55915;SDS011;41826;53.246;-6.670;2022-10-16T11:38:27;4.78;;;1.45;;
55915;SDS011;41826;53.246;-6.670;2022-10-16T11:41:37;7.57;;;1.55;;
55915;SDS011;41826;53.246;-6.670;2022-10-16T11:44:20;2.42;;;0.60;;
55915;SDS011;41826;53.246;-6.670;2022-10-16T11:47:12;5.25;;;1.13;;
55915;SDS011;41826;53.246;-6.670;2022-10-16T11:49:58;5.10;;;0.70;;
55915;SDS011;41826;53.246;-6.670;2022-10-16T11:52:49;3.30;;;0.70;;
55915;SDS011;41826;53.246;-6.670;2022-10-16T11:55:21;2.88;;;0.80;;
55915;SDS011;41826;53.246;-6.670;2022-10-16T11:57:57;5.78;;;1.33;;
55915;SDS011;41826;53.246;-6.670;2022-10-16T12:00:44;6.30;;;1.20;;
55915;SDS011;41826;53.246;-6.670;2022-10-16T12:03:13;4.70;;;1.10;;
55915;SDS011;41826;53.246;-6.670;2022-10-16T12:08:30;6.47;;;1.35;;
55915;SDS011;41826;53.246;-6.670;2022-10-16T12:11:59;3.28;;;0.90;;
55915;SDS011;41826;53.246;-6.670;2022-10-16T12:16:54;5.50;;;1.10;;
55915;SDS011;41826;53.246;-6.670;2022-10-16T12:19:21;3.83;;;1.27;;
55915;SDS011;41826;53.246;-6.670;2022-10-16T12:21:48;5.22;;;1.20;;
55915;SDS011;41826;53.246;-6.670;2022-10-16T12:27:00;3.85;;;1.27;;
55915;SDS011;41826;53.246;-6.670;2022-10-16T12:29:29;2.13;;;0.60;;
55915;SDS011;41826;53.246;-6.670;2022-10-16T12:32:05;3.95;;;0.90;;
55915;SDS011;41826;53.246;-6.670;2022-10-16T12:34:50;4.97;;;0.93;;
55915;SDS011;41826;53.246;-6.670;2022-10-16T12:37:20;4.97;;;0.80;;
55915;SDS011;41826;53.246;-6.670;2022-10-16T12:39:52;5.82;;;1.35;;
55915;SDS011;41826;53.246;-6.670;2022-10-16T12:44:51;3.85;;;0.90;;
55915;SDS011;41826;53.246;-6.670;2022-10-16T12:49:57;6.25;;;1.08;;
55915;SDS011;41826;53.246;-6.670;2022-10-16T12:54:56;4.43;;;0.90;;
55915;SDS011;41826;53.246;-6.670;2022-10-16T12:58:00;7.00;;;1.00;;
55915;SDS011;41826;53.246;-6.670;2022-10-16T13:00:40;2.38;;;0.82;;
55915;SDS011;41826;53.246;-6.670;2022-10-16T13:06:20;5.15;;;0.93;;
55915;SDS011;41826;53.246;-6.670;2022-10-16T13:09:19;8.20;;;0.88;;
55915;SDS011;41826;53.246;-6.670;2022-10-16T13:17:40;3.70;;;1.83;;
55915;SDS011;41826;53.246;-6.670;2022-10-16T13:23:15;6.40;;;0.95;;
55915;SDS011;41826;53.246;-6.670;2022-10-16T13:28:28;5.80;;;0.80;;
55915;SDS011;41826;53.246;-6.670;2022-10-16T13:30:58;2.50;;;0.47;;
55915;SDS011;41826;53.246;-6.670;2022-10-16T13:33:35;3.13;;;0.70;;
55915;SDS011;41826;53.246;-6.670;2022-10-16T13:36:03;3.83;;;0.80;;
55915;SDS011;41826;53.246;-6.670;2022-10-16T13:38:31;6.72;;;0.98;;
55915;SDS011;41826;53.246;-6.670;2022-10-16T13:41:12;1.63;;;1.05;;
55915;SDS011;41826;53.246;-6.670;2022-10-16T13:43:41;10.55;;;1.05;;
55915;SDS011;41826;53.246;-6.670;2022-10-16T13:46:14;4.07;;;0.43;;
55915;SDS011;41826;53.246;-6.670;2022-10-16T13:48:44;5.65;;;0.40;;
55915;SDS011;41826;53.246;-6.670;2022-10-16T13:51:20;1.35;;;0.57;;
55915;SDS011;41826;53.246;-6.670;2022-10-16T13:53:47;2.67;;;0.98;;
55915;SDS011;41826;53.246;-6.670;2022-10-16T13:56:14;2.13;;;0.50;;
55915;SDS011;41826;53.246;-6.670;2022-10-16T13:58:42;3.90;;;0.57;;
55915;SDS011;41826;53.246;-6.670;2022-10-16T14:01:28;2.90;;;0.80;;
55915;SDS011;41826;53.246;-6.670;2022-10-16T14:04:14;5.65;;;0.70;;
55915;SDS011;41826;53.246;-6.670;2022-10-16T14:06:41;5.03;;;0.65;;
55915;SDS011;41826;53.246;-6.670;2022-10-16T14:09:15;5.50;;;0.90;;
55915;SDS011;41826;53.246;-6.670;2022-10-16T14:11:46;4.18;;;1.00;;
55915;SDS011;41826;53.246;-6.670;2022-10-16T14:14:14;1.95;;;0.77;;
55915;SDS011;41826;53.246;-6.670;2022-10-16T14:16:41;3.72;;;0.70;;
55915;SDS011;41826;53.246;-6.670;2022-10-16T14:19:18;3.88;;;0.55;;
55915;SDS011;41826;53.246;-6.670;2022-10-16T14:21:47;3.60;;;0.70;;
55915;SDS011;41826;53.246;-6.670;2022-10-16T14:24:22;1.73;;;0.50;;
55915;SDS011;41826;53.246;-6.670;2022-10-16T14:26:56;1.45;;;0.60;;
55915;SDS011;41826;53.246;-6.670;2022-10-16T14:29:22;4.38;;;1.00;;
55915;SDS011;41826;53.246;-6.670;2022-10-16T14:34:36;3.22;;;0.80;;
55915;SDS011;41826;53.246;-6.670;2022-10-16T14:37:23;2.47;;;0.95;;
55915;SDS011;41826;53.246;-6.670;2022-10-16T14:39:52;3.70;;;0.68;;
55915;SDS011;41826;53.246;-6.670;2022-10-16T14:42:19;2.10;;;0.60;;
55915;SDS011;41826;53.246;-6.670;2022-10-16T14:44:49;2.45;;;0.47;;
55915;SDS011;41826;53.246;-6.670;2022-10-16T14:47:18;3.20;;;0.73;;
55915;SDS011;41826;53.246;-6.670;2022-10-16T14:49:49;2.08;;;0.55;;
55915;SDS011;41826;53.246;-6.670;2022-10-16T14:52:15;3.15;;;0.60;;
55915;SDS011;41826;53.246;-6.670;2022-10-16T14:54:41;2.92;;;0.35;;
55915;SDS011;41826;53.246;-6.670;2022-10-16T14:57:15;3.45;;;0.60;;
55915;SDS011;41826;53.246;-6.670;2022-10-16T14:59:43;4.03;;;0.75;;
55915;SDS011;41826;53.246;-6.670;2022-10-16T15:02:27;4.32;;;0.50;;
55915;SDS011;41826;53.246;-6.670;2022-10-16T15:04:54;2.83;;;0.70;;
55915;SDS011;41826;53.246;-6.670;2022-10-16T15:07:20;2.88;;;0.50;;
55915;SDS011;41826;53.246;-6.670;2022-10-16T15:09:46;6.13;;;0.45;;
55915;SDS011;41826;53.246;-6.670;2022-10-16T15:12:12;2.42;;;0.57;;
55915;SDS011;41826;53.246;-6.670;2022-10-16T15:14:37;3.80;;;0.68;;
55915;SDS011;41826;53.246;-6.670;2022-10-16T15:17:03;4.10;;;0.68;;
55915;SDS011;41826;53.246;-6.670;2022-10-16T15:19:29;3.38;;;0.80;;
55915;SDS011;41826;53.246;-6.670;2022-10-16T15:21:54;3.97;;;0.82;;
55915;SDS011;41826;53.246;-6.670;2022-10-16T15:24:20;9.40;;;0.68;;
55915;SDS011;41826;53.246;-6.670;2022-10-16T15:26:45;5.60;;;1.50;;
55915;SDS011;41826;53.246;-6.670;2022-10-16T15:29:11;5.32;;;0.50;;
55915;SDS011;41826;53.246;-6.670;2022-10-16T15:31:37;3.95;;;0.63;;
55915;SDS011;41826;53.246;-6.670;2022-10-16T15:34:04;5.28;;;0.93;;
55915;SDS011;41826;53.246;-6.670;2022-10-16T15:36:34;5.38;;;0.75;;
55915;SDS011;41826;53.246;-6.670;2022-10-16T15:39:12;7.00;;;1.10;;
55915;SDS011;41826;53.246;-6.670;2022-10-16T15:41:41;6.80;;;1.10;;
55915;SDS011;41826;53.246;-6.670;2022-10-16T15:44:07;3.67;;;0.90;;
55915;SDS011;41826;53.246;-6.670;2022-10-16T15:46:33;2.60;;;0.65;;
55915;SDS011;41826;53.246;-6.670;2022-10-16T15:48:59;6.40;;;0.70;;
55915;SDS011;41826;53.246;-6.670;2022-10-16T15:51:26;5.07;;;0.80;;
55915;SDS011;41826;53.246;-6.670;2022-10-16T15:53:57;7.95;;;0.80;;
55915;SDS011;41826;53.246;-6.670;2022-10-16T15:56:24;8.07;;;0.98;;
55915;SDS011;41826;53.246;-6.670;2022-10-16T15:58:51;3.25;;;0.70;;
55915;SDS011;41826;53.246;-6.670;2022-10-16T16:01:17;5.45;;;0.70;;
55915;SDS011;41826;53.246;-6.670;2022-10-16T16:03:42;9.10;;;0.60;;
55915;SDS011;41826;53.246;-6.670;2022-10-16T16:06:10;5.90;;;0.55;;
55915;SDS011;41826;53.246;-6.670;2022-10-16T16:08:37;10.02;;;2.72;;
55915;SDS011;41826;53.246;-6.670;2022-10-16T16:11:04;6.32;;;0.90;;
55915;SDS011;41826;53.246;-6.670;2022-10-16T16:13:30;2.85;;;0.70;;
55915;SDS011;41826;53.246;-6.670;2022-10-16T16:15:56;5.28;;;0.80;;
55915;SDS011;41826;53.246;-6.670;2022-10-16T16:18:22;2.03;;;0.80;;
55915;SDS011;41826;53.246;-6.670;2022-10-16T16:20:48;6.32;;;0.80;;
55915;SDS011;41826;53.246;-6.670;2022-10-16T16:23:14;1.45;;;0.70;;
55915;SDS011;41826;53.246;-6.670;2022-10-16T16:25:40;2.95;;;0.50;;
55915;SDS011;41826;53.246;-6.670;2022-10-16T16:28:05;5.45;;;0.68;;
55915;SDS011;41826;53.246;-6.670;2022-10-16T16:30:32;8.45;;;1.35;;
55915;SDS011;41826;53.246;-6.670;2022-10-16T16:32:58;1.38;;;0.70;;
55915;SDS011;41826;53.246;-6.670;2022-10-16T16:35:23;6.10;;;0.75;;
55915;SDS011;41826;53.246;-6.670;2022-10-16T16:37:49;6.03;;;0.82;;
55915;SDS011;41826;53.246;-6.670;2022-10-16T16:40:14;6.18;;;0.90;;
55915;SDS011;41826;53.246;-6.670;2022-10-16T16:42:40;3.75;;;0.90;;